This is the latest recevied weather packets stored in our database for station/object WMKN. If no packets are shown the sender has not sent any weather packets the latest 10 day(s).
| Time | Temp. | Humidity | Pressure | Rain* | Wind** | Luminosity | Snow |
|---|---|---|---|---|---|---|---|
| 1777716641 | 31.67° C | 70% | 1006 hPa | - | - | - | - |
| 1777713028 | 32.78° C | 66% | 1006 hPa | - | - | - | - |
| 1777709427 | 32.78° C | 66% | 1006 hPa | - | - | - | - |
| 1777705829 | 32.78° C | 66% | 1007 hPa | - | - | - | - |
| 1777702240 | 32.78° C | 62% | 1008 hPa | - | - | - | - |
| 1777698631 | 32.78° C | 62% | 1009 hPa | - | - | - | - |
| 1777695027 | 32.78° C | 62% | 1010 hPa | - | - | - | - |
| 1777691427 | 31.67° C | 70% | 1010 hPa | - | - | - | - |
| 1777666226 | 26.67° C | 88% | 1008 hPa | - | - | - | - |
| 1777662626 | 27.78° C | 83% | 1008 hPa | - | - | - | - |
| 1777659026 | 27.78° C | 83% | 1009 hPa | - | - | - | - |
| 1777651828 | 27.78° C | 83% | 1010 hPa | - | - | - | - |
| 1777648222 | 28.89° C | 83% | 1010 hPa | - | - | - | - |
| 1777644626 | 28.89° C | 83% | 1009 hPa | - | - | - | - |
| 1777641036 | 30° C | 79% | 1009 hPa | - | - | - | - |
| 1777633825 | 30.56° C | 74% | 1008 hPa | - | - | - | - |
| 1777630234 | 31.67° C | 70% | 1007 hPa | - | - | - | - |
| 1777626639 | 31.67° C | 70% | 1007 hPa | - | - | - | - |
| 1777623028 | 33.89° C | 59% | 1007 hPa | - | - | - | - |
| 1777619425 | 32.78° C | 62% | 1008 hPa | - | - | - | - |
| 1777615831 | 32.78° C | 70% | 1009 hPa | - | - | - | - |
| 1777612239 | 32.78° C | 66% | 1010 hPa | - | - | - | - |
| 1777608625 | 32.78° C | 66% | 1011 hPa | - | - | - | - |
| 1777605025 | 31.67° C | 70% | 1011 hPa | - | - | - | - |
| 1777601425 | 30° C | 79% | 1011 hPa | - | - | - | - |
* Rain since midnight (hover to see other rain measurements)
** Current wind speed in m/s (hover to see current wind gust speed)